createdAt,value
2017-11-13T00:01:15.652Z,87.00
2017-11-13T00:03:42.299Z,85.20
2017-11-13T00:06:09.741Z,81.80
2017-11-13T00:08:36.435Z,81.80
2017-11-13T00:11:03.160Z,81.50
2017-11-13T00:13:30.591Z,80.30
2017-11-13T00:15:57.287Z,80.30
2017-11-13T00:18:24.051Z,81.60
2017-11-13T00:20:50.735Z,81.50
2017-11-13T00:23:17.426Z,81.30
2017-11-13T00:25:44.160Z,81.80
2017-11-13T00:28:10.903Z,83.20
2017-11-13T00:30:37.595Z,83.20
2017-11-13T00:33:04.290Z,82.40
2017-11-13T00:35:31.004Z,82.80
2017-11-13T00:37:58.415Z,84.70
2017-11-13T00:40:25.160Z,84.60
2017-11-13T00:42:51.824Z,82.50
2017-11-13T00:45:18.484Z,84.00
2017-11-13T00:47:45.163Z,84.00
2017-11-13T00:50:11.854Z,80.20
2017-11-13T00:52:38.540Z,84.10
2017-11-13T00:55:05.204Z,78.10
2017-11-13T00:57:31.880Z,78.10
2017-11-13T00:59:59.342Z,77.40
2017-11-13T01:02:26.007Z,78.30
2017-11-13T01:04:52.711Z,77.30
2017-11-13T01:07:20.188Z,78.90
2017-11-13T01:09:46.912Z,78.20
2017-11-13T01:12:13.607Z,81.40
2017-11-13T01:14:41.024Z,79.30
2017-11-13T01:17:07.698Z,79.30
2017-11-13T01:19:34.435Z,80.40
2017-11-13T01:22:01.096Z,79.20
2017-11-13T01:24:27.767Z,80.10
2017-11-13T01:26:54.539Z,80.10
2017-11-13T01:29:21.191Z,80.30
2017-11-13T01:31:47.943Z,80.40
2017-11-13T01:34:14.676Z,78.40
2017-11-13T01:36:41.332Z,79.10
2017-11-13T01:39:08.008Z,79.60
2017-11-13T01:41:34.776Z,78.80
2017-11-13T01:44:01.432Z,79.60
2017-11-13T01:46:29.078Z,77.50
2017-11-13T01:48:55.771Z,76.80
2017-11-13T01:51:22.505Z,77.10
2017-11-13T01:53:49.184Z,77.60
2017-11-13T01:56:16.705Z,78.40
2017-11-13T01:58:43.370Z,78.30
2017-11-13T02:01:10.103Z,78.10
2017-11-13T02:03:36.896Z,77.70
2017-11-13T02:06:03.698Z,77.10
2017-11-13T02:08:30.519Z,79.70
2017-11-13T02:10:57.326Z,79.50
2017-11-13T02:13:24.053Z,77.80
2017-11-13T02:15:51.500Z,77.70
2017-11-13T02:18:18.208Z,77.60
2017-11-13T02:20:45.012Z,79.30
2017-11-13T02:23:12.568Z,80.90
2017-11-13T02:25:40.157Z,82.00
2017-11-13T02:28:07.002Z,82.10
2017-11-13T02:30:33.842Z,83.90
2017-11-13T02:33:00.608Z,85.50
2017-11-13T02:35:27.363Z,86.00
2017-11-13T02:37:54.092Z,87.50
2017-11-13T02:40:20.901Z,87.50
2017-11-13T02:42:48.418Z,88.70
2017-11-13T02:45:15.177Z,88.70
2017-11-13T02:47:41.974Z,89.90
2017-11-13T02:50:09.588Z,88.70
2017-11-13T02:52:36.343Z,84.40
2017-11-13T02:55:03.093Z,85.00
2017-11-13T02:57:29.843Z,86.60
2017-11-13T02:59:57.316Z,82.60
2017-11-13T03:02:24.744Z,83.40
2017-11-13T03:04:51.408Z,83.50
2017-11-13T03:07:18.087Z,82.60
2017-11-13T03:09:44.820Z,82.80
2017-11-13T03:12:11.487Z,81.80
2017-11-13T03:14:38.244Z,82.60
2017-11-13T03:17:04.996Z,81.10
2017-11-13T03:19:31.685Z,82.10
2017-11-13T03:21:59.132Z,81.90
2017-11-13T03:24:26.704Z,80.00
2017-11-13T03:26:54.135Z,78.80
2017-11-13T03:29:20.847Z,78.80
2017-11-13T03:31:47.588Z,80.60
2017-11-13T03:34:14.273Z,78.70
2017-11-13T03:36:40.950Z,77.40
2017-11-13T03:39:08.451Z,75.10
2017-11-13T03:41:35.157Z,75.00
2017-11-13T03:44:01.861Z,75.90
2017-11-13T03:46:29.372Z,76.40
2017-11-13T03:48:56.048Z,76.80
2017-11-13T03:51:22.707Z,76.00
2017-11-13T03:53:49.412Z,73.70
2017-11-13T03:56:16.097Z,73.20
2017-11-13T03:58:42.765Z,74.30
2017-11-13T04:01:11.444Z,72.80
2017-11-13T04:03:38.836Z,72.10
2017-11-13T04:06:05.506Z,72.10
2017-11-13T04:08:33.172Z,71.80
2017-11-13T04:11:00.456Z,73.50
2017-11-13T04:13:27.148Z,72.30
2017-11-13T04:15:53.862Z,72.60
2017-11-13T04:18:20.553Z,71.80
2017-11-13T04:20:47.220Z,73.50
2017-11-13T04:23:13.940Z,71.60
2017-11-13T04:25:40.636Z,72.10
2017-11-13T04:28:08.125Z,70.70
2017-11-13T04:30:34.881Z,70.70
2017-11-13T04:33:01.525Z,72.60
2017-11-13T04:35:28.192Z,71.00
2017-11-13T04:40:34.788Z,68.70
2017-11-13T04:43:03.058Z,69.60
2017-11-13T04:45:31.642Z,68.70
2017-11-13T04:47:58.542Z,70.00
2017-11-13T04:50:38.697Z,70.70
2017-11-13T04:53:20.033Z,70.50
2017-11-13T04:55:46.738Z,69.50
2017-11-13T04:58:15.317Z,69.70
2017-11-13T05:00:43.842Z,70.40
2017-11-13T05:03:12.314Z,69.90
2017-11-13T05:05:40.784Z,70.50
2017-11-13T05:08:07.473Z,69.90
2017-11-13T05:10:34.379Z,70.00
2017-11-13T05:13:01.076Z,71.50
2017-11-13T05:15:27.798Z,71.80
2017-11-13T05:17:55.376Z,72.60
2017-11-13T05:20:22.093Z,74.60
2017-11-13T05:22:50.020Z,76.50
2017-11-13T05:25:18.525Z,75.00
2017-11-13T05:27:45.224Z,75.20
2017-11-13T05:30:12.259Z,73.10
2017-11-13T05:32:38.917Z,73.50
2017-11-13T05:35:05.600Z,74.30
2017-11-13T05:37:33.983Z,73.70
2017-11-13T05:40:02.219Z,72.90
2017-11-13T05:42:30.236Z,72.80
2017-11-13T05:44:57.286Z,73.40
2017-11-13T05:47:24.284Z,73.40
2017-11-13T05:49:51.257Z,72.40
2017-11-13T05:52:17.958Z,72.60
2017-11-13T05:54:44.685Z,72.70
2017-11-13T05:57:11.390Z,72.10
2017-11-13T05:59:38.067Z,72.00
2017-11-13T06:02:05.473Z,72.00
2017-11-13T06:04:32.207Z,72.10
2017-11-13T06:06:58.892Z,72.20
2017-11-13T06:09:25.664Z,71.10
2017-11-13T06:11:52.370Z,71.30
2017-11-13T06:14:19.041Z,72.40
2017-11-13T06:16:45.798Z,72.20
2017-11-13T06:19:12.526Z,71.80
2017-11-13T06:21:39.959Z,71.40
2017-11-13T06:24:06.753Z,71.40
2017-11-13T06:26:33.418Z,72.70
2017-11-13T06:29:00.058Z,70.80
2017-11-13T06:31:26.819Z,71.90
2017-11-13T06:33:53.575Z,71.30
2017-11-13T06:36:20.277Z,71.40
2017-11-13T06:38:46.999Z,71.40
2017-11-13T06:41:13.669Z,70.80
2017-11-13T06:43:41.313Z,70.00
2017-11-13T06:46:08.008Z,70.30
2017-11-13T06:48:34.682Z,69.90
2017-11-13T06:51:02.139Z,70.30
2017-11-13T06:53:29.569Z,69.20
2017-11-13T06:55:56.247Z,69.20
2017-11-13T06:58:24.151Z,68.20
2017-11-13T07:00:50.852Z,68.20
2017-11-13T07:03:17.531Z,67.50
2017-11-13T07:05:44.211Z,66.60
2017-11-13T07:08:11.364Z,66.30
2017-11-13T07:10:38.022Z,66.70
2017-11-13T07:13:05.677Z,65.30
2017-11-13T07:15:32.378Z,65.80
2017-11-13T07:17:59.033Z,66.90
2017-11-13T07:20:25.701Z,66.20
2017-11-13T07:22:52.375Z,64.20
2017-11-13T07:25:19.810Z,64.10
2017-11-13T07:27:46.487Z,64.00
2017-11-13T07:30:13.945Z,64.40
2017-11-13T07:32:41.388Z,64.50
2017-11-13T07:35:08.168Z,64.50
2017-11-13T07:37:34.889Z,62.90
2017-11-13T07:40:02.406Z,62.30
2017-11-13T07:42:29.109Z,62.30
2017-11-13T07:44:55.984Z,62.10
2017-11-13T07:47:22.664Z,61.90
2017-11-13T07:49:49.330Z,61.20
2017-11-13T07:52:16.776Z,60.90
2017-11-13T07:54:43.443Z,60.90
2017-11-13T07:57:10.875Z,60.20
2017-11-13T07:59:37.635Z,60.10
2017-11-13T08:02:05.067Z,60.50
2017-11-13T08:04:31.743Z,60.50
2017-11-13T08:06:59.229Z,60.30
2017-11-13T08:09:25.971Z,60.30
2017-11-13T08:11:52.659Z,60.10
2017-11-13T08:14:19.364Z,60.40
2017-11-13T08:16:46.037Z,60.70
2017-11-13T08:19:12.713Z,64.60
2017-11-13T08:21:39.416Z,77.20
2017-11-13T08:24:06.123Z,80.90
2017-11-13T08:26:32.840Z,81.90
2017-11-13T08:28:59.646Z,84.40
2017-11-13T08:31:26.370Z,86.30
2017-11-13T08:33:53.110Z,87.70
2017-11-13T08:36:19.908Z,87.50
2017-11-13T08:38:46.644Z,90.00
2017-11-13T08:41:13.308Z,90.30
2017-11-13T08:43:40.759Z,90.90
2017-11-13T08:46:07.451Z,90.80
2017-11-13T08:48:34.269Z,90.20
2017-11-13T08:51:01.241Z,90.50
2017-11-13T08:53:27.915Z,90.10
2017-11-13T08:55:54.625Z,90.20
2017-11-13T08:58:21.407Z,90.50
2017-11-13T09:00:48.077Z,90.50
2017-11-13T09:03:14.770Z,90.80
2017-11-13T09:05:41.459Z,91.00
2017-11-13T09:08:08.244Z,91.50
2017-11-13T09:10:35.602Z,91.60
2017-11-13T09:13:02.337Z,91.10
2017-11-13T09:15:29.775Z,91.20
2017-11-13T09:17:58.019Z,90.80
2017-11-13T09:20:24.862Z,90.30
2017-11-13T09:22:51.526Z,90.10
2017-11-13T09:25:18.211Z,89.70
2017-11-13T09:27:44.890Z,87.10
2017-11-13T09:30:12.528Z,75.80
2017-11-13T09:32:39.194Z,80.60
2017-11-13T09:35:05.946Z,84.90
2017-11-13T09:37:32.713Z,84.90
2017-11-13T09:39:59.440Z,83.70
2017-11-13T09:42:26.207Z,86.40
2017-11-13T09:44:52.923Z,88.50
2017-11-13T09:47:19.955Z,87.40
2017-11-13T09:49:46.665Z,87.80
2017-11-13T09:52:14.133Z,79.30
2017-11-13T09:54:41.620Z,84.20
2017-11-13T09:57:09.143Z,84.10
2017-11-13T09:59:36.592Z,86.50
2017-11-13T10:02:03.331Z,86.50
2017-11-13T10:04:30.020Z,84.50
2017-11-13T10:06:56.713Z,86.10
2017-11-13T10:09:23.451Z,87.30
2017-11-13T10:11:50.180Z,85.90
2017-11-13T10:14:17.879Z,83.90
2017-11-13T10:16:45.827Z,84.90
2017-11-13T10:19:12.833Z,86.70
2017-11-13T10:21:39.539Z,87.50
2017-11-13T10:24:06.324Z,81.90
2017-11-13T10:26:33.094Z,83.90
2017-11-13T10:28:59.822Z,85.10
2017-11-13T10:31:27.501Z,83.70
2017-11-13T10:33:54.249Z,81.50
2017-11-13T10:36:20.973Z,81.50
2017-11-13T10:38:47.723Z,81.00
2017-11-13T10:41:14.487Z,76.60
2017-11-13T10:43:41.193Z,63.90
2017-11-13T10:46:07.925Z,59.80
2017-11-13T10:48:35.423Z,55.70
2017-11-13T10:51:03.699Z,55.60
2017-11-13T10:53:30.493Z,53.90
2017-11-13T10:55:57.265Z,54.70
2017-11-13T10:58:24.735Z,52.60
2017-11-13T11:00:51.484Z,52.60
2017-11-13T11:03:18.347Z,53.20
2017-11-13T11:05:45.096Z,53.80
2017-11-13T11:08:11.853Z,52.70
2017-11-13T11:10:38.915Z,52.40
2017-11-13T11:13:05.664Z,53.70
2017-11-13T11:15:33.184Z,52.00
2017-11-13T11:18:03.771Z,50.90
2017-11-13T11:20:30.516Z,52.40
2017-11-13T11:36:33.000Z,51.90
2017-11-13T11:38:59.737Z,51.90
2017-11-13T11:41:26.558Z,51.40
2017-11-13T11:47:03.426Z,50.90
2017-11-13T11:49:32.682Z,50.60
2017-11-13T11:51:59.435Z,50.70
2017-11-13T11:54:31.137Z,50.30
2017-11-13T11:57:00.462Z,50.70
2017-11-13T11:59:27.235Z,50.70
2017-11-13T12:01:53.978Z,50.00
2017-11-13T12:04:20.821Z,50.50
2017-11-13T12:06:48.270Z,49.60
2017-11-13T12:09:14.983Z,49.80
2017-11-13T12:11:42.450Z,50.20
2017-11-13T12:14:09.918Z,50.50
2017-11-13T12:16:36.661Z,50.40
2017-11-13T12:19:03.369Z,48.20
2017-11-13T12:21:30.102Z,48.30
2017-11-13T12:23:56.748Z,48.60
2017-11-13T12:26:23.435Z,48.70
2017-11-13T12:28:50.740Z,49.00
2017-11-13T12:31:17.408Z,48.30
2017-11-13T12:33:45.104Z,48.10
2017-11-13T12:36:11.813Z,48.30
2017-11-13T12:38:38.498Z,48.40
2017-11-13T12:41:05.219Z,48.30
2017-11-13T12:43:32.650Z,47.50
2017-11-13T12:45:59.351Z,48.10
2017-11-13T12:48:26.066Z,47.60
2017-11-13T12:50:53.493Z,48.40
2017-11-13T12:53:20.221Z,48.40
2017-11-13T12:55:46.927Z,48.40
2017-11-13T12:58:14.363Z,47.70
2017-11-13T13:00:41.092Z,47.70
2017-11-13T13:03:07.783Z,48.50
2017-11-13T13:05:34.479Z,47.80
2017-11-13T13:08:01.196Z,47.90
2017-11-13T13:10:28.040Z,47.60
2017-11-13T13:12:54.714Z,47.50
2017-11-13T13:15:21.397Z,47.40
2017-11-13T13:17:48.104Z,46.80
2017-11-13T13:20:14.820Z,47.70
2017-11-13T13:22:41.485Z,48.20
2017-11-13T13:25:08.166Z,46.90
2017-11-13T13:27:35.556Z,46.60
2017-11-13T13:30:02.233Z,46.60
2017-11-13T13:32:28.995Z,46.50
2017-11-13T13:34:56.448Z,45.00
2017-11-13T13:37:23.219Z,45.00
2017-11-13T13:39:50.734Z,46.30
2017-11-13T13:42:18.716Z,46.30
2017-11-13T13:44:45.409Z,46.40
2017-11-13T13:47:12.126Z,47.20
2017-11-13T13:49:38.811Z,47.20
2017-11-13T13:52:05.489Z,47.90
2017-11-13T13:54:32.188Z,47.00
2017-11-13T13:56:58.880Z,46.80
2017-11-13T13:59:27.363Z,46.40
2017-11-13T14:01:54.104Z,47.10
2017-11-13T14:04:20.796Z,48.10
2017-11-13T14:06:47.516Z,48.20
2017-11-13T14:09:14.996Z,47.80
2017-11-13T14:11:41.703Z,47.80
2017-11-13T14:14:08.422Z,47.80
2017-11-13T14:16:35.113Z,47.60
2017-11-13T14:19:02.543Z,47.60
2017-11-13T14:21:29.201Z,47.60
2017-11-13T14:23:55.873Z,47.90
2017-11-13T14:26:23.217Z,47.80
2017-11-13T14:28:50.728Z,48.20
2017-11-13T14:31:17.756Z,48.20
2017-11-13T14:33:44.446Z,47.40
2017-11-13T14:36:11.107Z,47.60
2017-11-13T14:38:38.721Z,48.00
2017-11-13T14:41:05.400Z,48.00
2017-11-13T14:43:32.913Z,47.50
2017-11-13T14:45:59.609Z,48.50
2017-11-13T14:48:26.327Z,47.80
2017-11-13T14:50:52.981Z,48.10
2017-11-13T14:53:19.755Z,48.20
2017-11-13T14:55:47.163Z,48.50
2017-11-13T14:58:13.856Z,48.50
2017-11-13T15:00:41.271Z,48.00
2017-11-13T15:03:07.924Z,47.90
2017-11-13T15:05:35.343Z,48.80
2017-11-13T15:08:02.032Z,48.80
2017-11-13T15:10:28.698Z,48.70
2017-11-13T15:12:56.134Z,49.90
2017-11-13T15:15:22.840Z,49.90
2017-11-13T15:17:50.204Z,49.50
2017-11-13T15:20:16.909Z,48.90
2017-11-13T15:22:44.323Z,49.90
2017-11-13T15:25:10.994Z,49.80
2017-11-13T15:27:37.686Z,50.30
2017-11-13T15:30:04.497Z,49.10
2017-11-13T15:32:31.955Z,48.60
2017-11-13T15:34:59.408Z,50.10
2017-11-13T15:37:26.083Z,49.50
2017-11-13T15:39:52.835Z,49.50
2017-11-13T15:42:19.526Z,49.60
2017-11-13T15:44:46.270Z,49.50
2017-11-13T15:47:12.967Z,49.60
2017-11-13T15:49:39.670Z,50.30
2017-11-13T15:52:06.387Z,50.00
2017-11-13T15:54:33.036Z,50.40
2017-11-13T15:56:59.723Z,49.80
2017-11-13T15:59:26.432Z,49.80
2017-11-13T16:01:53.095Z,49.60
2017-11-13T16:04:20.509Z,50.60
2017-11-13T16:06:47.227Z,50.50
2017-11-13T16:09:13.896Z,49.40
2017-11-13T16:11:41.319Z,49.20
2017-11-13T16:14:08.749Z,49.00
2017-11-13T16:16:35.418Z,48.90
2017-11-13T16:19:02.882Z,50.00
2017-11-13T16:21:29.558Z,50.00
2017-11-13T16:23:56.220Z,50.70
2017-11-13T16:26:22.895Z,50.10
2017-11-13T16:28:50.410Z,50.10
2017-11-13T16:31:17.134Z,50.10
2017-11-13T16:33:43.834Z,50.00
2017-11-13T16:36:10.586Z,49.90
2017-11-13T16:38:37.260Z,49.70
2017-11-13T16:41:03.951Z,50.60
2017-11-13T16:43:30.672Z,49.90
2017-11-13T16:45:57.411Z,49.60
2017-11-13T16:48:24.165Z,49.80
2017-11-13T16:50:50.858Z,49.10
2017-11-13T16:53:18.370Z,48.80
2017-11-13T16:55:45.099Z,48.70
2017-11-13T16:58:11.811Z,49.00
2017-11-13T17:00:38.493Z,48.90
2017-11-13T17:03:05.184Z,48.80
2017-11-13T17:05:31.870Z,49.20
2017-11-13T17:07:58.558Z,49.80
2017-11-13T17:10:26.219Z,50.50
2017-11-13T17:12:52.935Z,49.80
2017-11-13T17:15:19.641Z,50.10
2017-11-13T17:17:46.340Z,49.60
2017-11-13T17:20:13.061Z,50.40
2017-11-13T17:22:39.774Z,49.00
2017-11-13T17:25:06.483Z,49.40
2017-11-13T17:27:33.233Z,49.90
2017-11-13T17:29:59.899Z,49.70
2017-11-13T17:32:27.326Z,50.00
2017-11-13T17:34:54.024Z,49.90
2017-11-13T17:37:20.733Z,49.80
2017-11-13T17:39:48.189Z,49.70
2017-11-13T17:42:14.913Z,49.60
2017-11-13T17:44:41.732Z,49.40
2017-11-13T17:47:08.416Z,49.00
2017-11-13T17:49:35.129Z,49.00
2017-11-13T17:52:02.660Z,49.50
2017-11-13T17:54:29.487Z,50.00
2017-11-13T17:56:57.006Z,49.70
2017-11-13T17:59:23.688Z,49.70
2017-11-13T18:01:51.184Z,50.50
2017-11-13T18:04:17.950Z,50.50
2017-11-13T18:06:44.732Z,50.50
2017-11-13T18:09:11.442Z,50.20
2017-11-13T18:11:38.163Z,49.70
2017-11-13T18:14:04.890Z,49.80
2017-11-13T18:16:31.911Z,50.20
2017-11-13T18:18:58.653Z,49.20
2017-11-13T18:21:25.347Z,48.80
2017-11-13T18:23:52.083Z,49.70
2017-11-13T18:26:18.850Z,49.30
2017-11-13T18:28:45.539Z,48.50
2017-11-13T18:31:12.955Z,49.80
2017-11-13T18:33:41.011Z,49.20
2017-11-13T18:36:07.817Z,49.20
2017-11-13T18:38:35.483Z,48.50
2017-11-13T18:41:02.226Z,48.50
2017-11-13T18:43:29.746Z,48.90
2017-11-13T18:45:56.468Z,48.90
2017-11-13T18:48:23.275Z,49.20
2017-11-13T18:50:50.130Z,49.70
2017-11-13T18:53:17.578Z,48.10
2017-11-13T18:55:45.068Z,48.10
2017-11-13T18:58:12.501Z,47.60
2017-11-13T19:00:39.220Z,47.60
2017-11-13T19:03:05.919Z,48.30
2017-11-13T19:05:32.705Z,48.20
2017-11-13T19:07:59.419Z,48.60
2017-11-13T19:10:26.177Z,49.40
2017-11-13T19:12:52.846Z,49.20
2017-11-13T19:15:19.541Z,49.30
2017-11-13T19:17:46.271Z,49.40
2017-11-13T19:20:13.714Z,49.10
2017-11-13T19:22:41.163Z,49.30
2017-11-13T19:25:07.866Z,49.40
2017-11-13T19:27:34.586Z,49.20
2017-11-13T19:30:01.288Z,49.60
2017-11-13T19:32:28.048Z,49.60
2017-11-13T19:34:54.821Z,50.00
2017-11-13T19:37:21.596Z,50.80
2017-11-13T19:39:48.307Z,50.00
2017-11-13T19:42:15.778Z,50.30
2017-11-13T19:44:42.521Z,50.30
2017-11-13T19:47:09.209Z,50.40
2017-11-13T19:49:35.897Z,50.70
2017-11-13T19:52:03.435Z,50.80
2017-11-13T19:54:30.235Z,50.90
2017-11-13T19:56:56.958Z,52.00
2017-11-13T19:59:23.682Z,51.00
2017-11-13T20:01:51.191Z,51.10
2017-11-13T20:04:17.899Z,51.10
2017-11-13T20:06:44.583Z,51.50
2017-11-13T20:09:11.327Z,51.00
2017-11-13T20:11:38.067Z,50.70
2017-11-13T20:14:04.762Z,51.10
2017-11-13T20:16:32.236Z,51.30
2017-11-13T20:18:59.724Z,51.50
2017-11-13T20:21:26.499Z,51.40
2017-11-13T20:23:53.270Z,51.20
2017-11-13T20:26:20.688Z,51.80
2017-11-13T20:28:47.378Z,52.30
2017-11-13T20:31:14.923Z,51.50
2017-11-13T20:33:41.627Z,51.40
2017-11-13T20:36:08.329Z,51.80
2017-11-13T20:38:35.844Z,50.90
2017-11-13T20:41:02.643Z,50.80
2017-11-13T20:43:30.158Z,50.90
2017-11-13T20:45:56.859Z,50.90
2017-11-13T20:48:23.704Z,51.40
2017-11-13T20:50:50.476Z,51.60
2017-11-13T20:53:17.160Z,51.70
2017-11-13T20:55:43.976Z,51.70
2017-11-13T20:58:10.658Z,51.60
2017-11-13T21:00:37.433Z,52.10
2017-11-13T21:03:04.149Z,51.90
2017-11-13T21:05:30.919Z,52.10
2017-11-13T21:07:57.632Z,52.10
2017-11-13T21:10:24.601Z,52.60
2017-11-13T21:12:52.057Z,53.10
2017-11-13T21:15:19.502Z,51.80
2017-11-13T21:17:47.362Z,52.20
2017-11-13T21:20:14.096Z,52.10
2017-11-13T21:22:40.816Z,52.30
2017-11-13T21:25:07.482Z,52.30
2017-11-13T21:27:34.186Z,52.50
2017-11-13T21:30:00.902Z,53.00
2017-11-13T21:32:28.338Z,52.70
2017-11-13T21:34:55.020Z,52.70
2017-11-13T21:37:21.749Z,52.20
2017-11-13T21:39:49.196Z,52.60
2017-11-13T21:42:16.670Z,52.60
2017-11-13T21:44:44.188Z,52.00
2017-11-13T21:47:10.880Z,52.00
2017-11-13T21:49:38.327Z,52.20
2017-11-13T21:52:05.104Z,52.20
2017-11-13T21:54:31.804Z,52.50
2017-11-13T21:56:58.492Z,52.10
2017-11-13T21:59:25.196Z,53.20
2017-11-13T22:01:51.896Z,52.30
2017-11-13T22:04:18.592Z,52.70
2017-11-13T22:06:46.049Z,52.70
2017-11-13T22:09:12.759Z,52.70
2017-11-13T22:11:39.472Z,52.60
2017-11-13T22:14:06.177Z,52.80
2017-11-13T22:16:32.842Z,52.70
2017-11-13T22:19:00.287Z,53.70
2017-11-13T22:21:27.846Z,55.30
2017-11-13T22:23:54.559Z,54.70
2017-11-13T22:26:21.300Z,54.00
2017-11-13T22:28:47.992Z,53.20
2017-11-13T22:31:15.433Z,56.40
2017-11-13T22:33:42.118Z,56.40
2017-11-13T22:36:08.854Z,56.70
2017-11-13T22:38:35.576Z,54.60
2017-11-13T22:41:03.041Z,55.40
2017-11-13T22:43:30.532Z,55.50
2017-11-13T22:45:58.152Z,55.50
2017-11-13T22:48:24.911Z,55.90
2017-11-13T22:50:51.743Z,57.40
2017-11-13T22:53:18.527Z,58.40
2017-11-13T22:55:45.263Z,57.70
2017-11-13T22:58:11.990Z,58.80
2017-11-13T23:00:38.695Z,58.10
2017-11-13T23:03:05.372Z,58.60
2017-11-13T23:05:32.848Z,61.10
2017-11-13T23:08:00.276Z,60.10
2017-11-13T23:10:26.959Z,60.10
2017-11-13T23:12:53.643Z,59.00
2017-11-13T23:15:20.349Z,59.70
2017-11-13T23:17:47.048Z,58.50
2017-11-13T23:20:13.753Z,59.00
2017-11-13T23:22:40.453Z,59.20
2017-11-13T23:25:07.889Z,59.20
2017-11-13T23:27:34.604Z,59.20
2017-11-13T23:30:01.276Z,58.90
2017-11-13T23:32:28.716Z,60.40
2017-11-13T23:34:55.405Z,59.70
2017-11-13T23:37:22.830Z,61.80
2017-11-13T23:39:49.503Z,61.80
2017-11-13T23:42:16.267Z,61.40
2017-11-13T23:44:43.723Z,61.80
2017-11-13T23:47:10.460Z,61.80
2017-11-13T23:49:37.938Z,60.30
2017-11-13T23:52:04.682Z,60.30
2017-11-13T23:54:36.027Z,59.00
2017-11-13T23:57:03.470Z,60.80
2017-11-13T23:59:30.189Z,60.80
